Time;durP1;ratioP1;P1;durP2;ratioP2;P2;SDS_P1;SDS_P2;PMS_P1;PMS_P2;Temp;Humidity;BMP_temperature;BMP_pressure;BME280_temperature;BME280_humidity;BME280_pressure;Samples;Min_cycle;Max_cycle;Signal;HPM_P1;HPM_P2
2023/12/03 00:01:19;;;;;;;28.57;25.50;;;-1.60;99.90;;;;;;4893582;29;20457;-79
2023/12/03 00:03:46;;;;;;;27.20;24.30;;;-1.50;99.90;;;;;;4874633;29;20877;-78
2023/12/03 00:06:13;;;;;;;27.17;24.17;;;-1.40;99.90;;;;;;4870165;29;20500;-78
2023/12/03 00:08:40;;;;;;;27.00;24.07;;;-1.50;99.90;;;;;;4861232;29;20843;-79
2023/12/03 00:11:07;;;;;;;26.73;23.97;;;-1.40;99.90;;;;;;4870761;29;20469;-79
2023/12/03 00:13:34;;;;;;;27.00;24.10;;;-1.40;99.90;;;;;;4868424;29;20493;-79
2023/12/03 00:16:01;;;;;;;25.67;23.03;;;-1.20;99.90;;;;;;4885994;29;20819;-78
2023/12/03 00:18:27;;;;;;;26.27;23.57;;;-1.00;99.90;;;;;;4878400;29;20447;-79
2023/12/03 00:20:56;;;;;;;25.67;23.07;;;-1.40;99.90;;;;;;4892734;29;20970;-79
2023/12/03 00:23:22;;;;;;;26.43;23.63;;;-1.30;99.90;;;;;;4875699;29;20442;-79
2023/12/03 00:25:49;;;;;;;23.87;21.47;;;-1.00;99.90;;;;;;4861307;29;20561;-79
2023/12/03 00:28:16;;;;;;;25.43;23.00;;;-1.20;99.90;;;;;;4868507;29;20454;-79
2023/12/03 00:30:43;;;;;;;24.53;21.93;;;-1.10;99.90;;;;;;4884126;29;20447;-80
2023/12/03 00:33:10;;;;;;;23.87;21.43;;;-1.00;99.90;;;;;;4874504;29;20462;-78
2023/12/03 00:35:36;;;;;;;22.67;20.40;;;-1.10;99.90;;;;;;4874866;29;20542;-79
2023/12/03 00:38:05;;;;;;;24.97;22.47;;;-1.30;99.90;;;;;;4871972;29;20492;-79
2023/12/03 00:40:32;;;;;;;22.80;20.60;;;-1.00;99.90;;;;;;4887702;29;20443;-78
2023/12/03 00:42:59;;;;;;;22.53;20.43;;;-1.40;99.90;;;;;;4882525;29;20853;-78
2023/12/03 00:45:25;;;;;;;22.40;20.10;;;-1.30;99.90;;;;;;4868173;29;20500;-78
2023/12/03 00:47:52;;;;;;;22.03;19.93;;;-1.20;99.90;;;;;;4864249;29;20450;-79
2023/12/03 00:50:19;;;;;;;21.60;19.60;;;-1.40;99.90;;;;;;4862937;29;20450;-80
2023/12/03 00:52:46;;;;;;;22.60;20.30;;;-1.40;99.90;;;;;;4863141;29;20455;-79
2023/12/03 00:55:14;;;;;;;21.40;19.47;;;-1.50;99.90;;;;;;4870040;29;20470;-78
2023/12/03 00:57:41;;;;;;;20.77;18.87;;;-1.20;99.90;;;;;;4869137;29;20462;-78
2023/12/03 01:00:09;;;;;;;22.13;20.03;;;-1.10;99.90;;;;;;4884079;29;20449;-79
2023/12/03 01:02:36;;;;;;;22.40;20.23;;;-1.20;99.90;;;;;;4881024;29;20441;-78
2023/12/03 01:05:03;;;;;;;21.23;19.23;;;-1.40;99.90;;;;;;4859685;29;20852;-77
2023/12/03 01:07:30;;;;;;;20.93;18.93;;;-1.50;99.90;;;;;;4881062;29;20446;-79
2023/12/03 01:09:57;;;;;;;21.00;19.03;;;-1.60;99.90;;;;;;4864638;29;20460;-79
2023/12/03 01:12:25;;;;;;;21.70;19.60;;;-1.30;99.90;;;;;;4884487;29;20450;-78
2023/12/03 01:14:52;;;;;;;22.53;20.23;;;-1.20;99.90;;;;;;4886300;29;20435;-79
2023/12/03 01:17:18;;;;;;;19.93;18.07;;;-1.30;99.90;;;;;;4864456;29;20547;-78
2023/12/03 01:19:45;;;;;;;20.70;18.63;;;-1.40;99.90;;;;;;4875064;29;20550;-79
2023/12/03 01:22:12;;;;;;;20.00;18.17;;;-1.50;99.90;;;;;;4865104;29;20459;-77
2023/12/03 01:24:39;;;;;;;20.83;18.67;;;-1.50;99.90;;;;;;4860760;29;20461;-79
2023/12/03 01:27:06;;;;;;;20.20;18.20;;;-1.30;99.90;;;;;;4866128;29;20482;-78
2023/12/03 01:29:34;;;;;;;20.37;18.47;;;-1.50;99.90;;;;;;4858042;29;20464;-78
2023/12/03 01:32:01;;;;;;;19.90;18.10;;;-1.10;99.90;;;;;;4856967;29;20453;-79
2023/12/03 01:34:28;;;;;;;19.23;17.53;;;-1.30;99.90;;;;;;4873263;29;20436;-79
2023/12/03 01:36:54;;;;;;;21.03;19.10;;;-1.10;99.90;;;;;;4871926;29;20470;-78
2023/12/03 01:39:22;;;;;;;20.63;18.73;;;-1.10;99.90;;;;;;4856511;29;20845;-79
2023/12/03 01:41:51;;;;;;;20.47;18.63;;;-1.50;99.90;;;;;;4867232;29;20470;-79
2023/12/03 01:44:18;;;;;;;18.57;16.87;;;-1.40;99.90;;;;;;4884486;29;20453;-78
2023/12/03 01:46:47;;;;;;;21.50;19.37;;;-1.40;99.90;;;;;;4888339;29;20483;-78
2023/12/03 01:49:14;;;;;;;20.93;18.83;;;-1.40;99.90;;;;;;4862835;29;20453;-79
2023/12/03 01:51:42;;;;;;;21.90;19.70;;;-1.00;99.90;;;;;;4886019;29;20448;-78
2023/12/03 01:54:09;;;;;;;22.13;19.77;;;-1.40;99.90;;;;;;4855836;29;20457;-78
2023/12/03 01:56:35;;;;;;;21.23;19.13;;;-1.40;99.90;;;;;;4885339;29;20469;-78
2023/12/03 01:59:03;;;;;;;23.30;19.43;;;-1.30;99.90;;;;;;4856365;29;20475;-79
2023/12/03 02:01:29;;;;;;;20.40;18.33;;;-1.10;99.90;;;;;;4871286;29;20485;-79
2023/12/03 02:03:58;;;;;;;20.00;18.20;;;-1.50;99.90;;;;;;4859327;29;20831;-78
2023/12/03 02:06:25;;;;;;;19.27;17.50;;;-1.20;99.90;;;;;;4875673;29;20506;-78
2023/12/03 02:08:53;;;;;;;21.33;19.00;;;-1.30;99.90;;;;;;4867505;29;20514;-78
2023/12/03 02:11:20;;;;;;;21.63;19.47;;;-1.10;99.90;;;;;;4866185;29;20451;-78
2023/12/03 02:13:48;;;;;;;20.50;18.53;;;-1.00;99.90;;;;;;4889771;29;20454;-78
2023/12/03 02:16:16;;;;;;;21.23;18.97;;;-1.20;99.90;;;;;;4879677;29;20549;-78
2023/12/03 02:18:43;;;;;;;21.30;19.23;;;-1.20;99.90;;;;;;4861819;29;20464;-79
2023/12/03 02:21:11;;;;;;;21.90;19.73;;;-1.10;99.90;;;;;;4868512;29;20459;-79
2023/12/03 02:23:39;;;;;;;22.47;20.13;;;-1.10;99.90;;;;;;4885920;29;20445;-79
2023/12/03 02:26:07;;;;;;;20.57;18.47;;;-1.30;99.90;;;;;;4872840;29;20494;-79
2023/12/03 02:28:34;;;;;;;21.13;19.00;;;-1.40;99.90;;;;;;4873686;29;20447;-78
2023/12/03 02:31:01;;;;;;;20.57;18.67;;;-1.50;99.90;;;;;;4866264;29;20458;-78
2023/12/03 02:33:28;;;;;;;20.70;18.60;;;-1.00;99.90;;;;;;4856973;29;20453;-79
2023/12/03 02:35:55;;;;;;;20.33;18.43;;;-1.20;99.90;;;;;;4885198;29;20843;-79
2023/12/03 02:38:22;;;;;;;20.27;18.37;;;-1.10;99.90;;;;;;4874759;29;20442;-79
2023/12/03 02:40:50;;;;;;;20.57;18.63;;;-1.40;99.90;;;;;;4866340;29;20493;-78
2023/12/03 02:43:17;;;;;;;20.67;18.63;;;-1.10;99.90;;;;;;4870247;29;20478;-79
2023/12/03 02:45:44;;;;;;;20.10;18.07;;;-1.40;99.90;;;;;;4861329;29;20540;-79
2023/12/03 02:48:10;;;;;;;20.40;18.50;;;-1.20;99.90;;;;;;4875179;29;20470;-79
2023/12/03 02:50:37;;;;;;;19.80;17.80;;;-1.00;99.90;;;;;;4862987;29;20501;-78
2023/12/03 02:53:04;;;;;;;19.03;17.33;;;-1.00;99.90;;;;;;4883687;29;20451;-78
2023/12/03 02:55:31;;;;;;;20.43;18.43;;;-1.40;99.90;;;;;;4884604;29;20465;-79
2023/12/03 02:57:59;;;;;;;20.17;18.27;;;-1.20;99.90;;;;;;4868344;29;20465;-79
2023/12/03 03:00:26;;;;;;;20.83;18.77;;;-1.40;99.90;;;;;;4871531;29;20552;-79
2023/12/03 03:02:54;;;;;;;20.53;18.47;;;-1.10;99.90;;;;;;4881279;29;20442;-78
2023/12/03 03:05:21;;;;;;;20.97;18.87;;;-1.40;99.90;;;;;;4872774;29;20859;-79
2023/12/03 03:07:48;;;;;;;19.40;17.60;;;-1.70;99.90;;;;;;4862815;29;20446;-79
2023/12/03 03:10:15;;;;;;;21.13;18.97;;;-1.50;99.90;;;;;;4871719;29;20451;-79
2023/12/03 03:12:42;;;;;;;20.73;18.83;;;-1.80;99.90;;;;;;4886395;29;20938;-79
2023/12/03 03:15:10;;;;;;;20.67;18.67;;;-1.70;99.90;;;;;;4860102;29;20478;-78
2023/12/03 03:17:37;;;;;;;20.90;18.83;;;-1.70;99.90;;;;;;4882770;29;20442;-78
2023/12/03 03:20:05;;;;;;;22.07;19.80;;;-1.70;99.90;;;;;;4861459;29;20455;-79
2023/12/03 03:22:32;;;;;;;21.23;19.00;;;-1.50;99.90;;;;;;4872476;29;20462;-79
2023/12/03 03:25:00;;;;;;;21.23;19.23;;;-1.90;99.90;;;;;;4886498;29;20451;-78
2023/12/03 03:27:27;;;;;;;21.00;18.93;;;-1.90;99.90;;;;;;4859899;29;20459;-79
2023/12/03 03:29:53;;;;;;;20.63;18.53;;;-1.70;99.90;;;;;;4876135;29;20494;-78
2023/12/03 03:32:22;;;;;;;20.97;18.83;;;-1.60;99.90;;;;;;4862070;29;20450;-78
2023/12/03 03:34:48;;;;;;;20.33;18.43;;;-1.80;99.90;;;;;;4872127;29;20443;-80
2023/12/03 03:37:15;;;;;;;20.70;18.53;;;-2.00;99.90;;;;;;4865195;29;20461;-80
2023/12/03 03:39:42;;;;;;;22.07;19.10;;;-2.20;99.90;;;;;;4871561;29;20439;-79
2023/12/03 03:42:09;;;;;;;22.00;19.70;;;-2.30;99.90;;;;;;4855506;29;20463;-78
2023/12/03 03:44:36;;;;;;;21.50;19.20;;;-2.40;99.90;;;;;;4857425;29;20857;-78
2023/12/03 03:47:03;;;;;;;21.23;19.07;;;-2.20;99.90;;;;;;4865260;29;20474;-78
2023/12/03 03:49:31;;;;;;;21.17;18.93;;;-2.30;99.90;;;;;;4871167;29;20525;-78
2023/12/03 03:51:58;;;;;;;22.23;19.93;;;-2.20;99.90;;;;;;4860262;29;20478;-79
2023/12/03 03:54:25;;;;;;;21.73;19.53;;;-2.30;99.90;;;;;;4857220;29;20455;-79
2023/12/03 03:56:52;;;;;;;21.80;19.50;;;-2.40;99.90;;;;;;4868465;29;20474;-79
2023/12/03 03:59:19;;;;;;;20.57;18.53;;;-2.60;99.90;;;;;;4870835;29;20450;-78
2023/12/03 04:01:46;;;;;;;22.03;19.73;;;-2.50;99.90;;;;;;4884896;29;20861;-78
2023/12/03 04:04:13;;;;;;;22.57;20.27;;;-2.70;99.90;;;;;;4872954;29;20480;-79
2023/12/03 04:06:42;;;;;;;20.87;18.77;;;-2.90;99.90;;;;;;4866095;29;20486;-78
2023/12/03 04:09:09;;;;;;;22.37;19.53;;;-2.80;99.90;;;;;;4868753;29;21035;-78
2023/12/03 04:11:39;;;;;;;21.67;19.37;;;-2.90;99.90;;;;;;4864575;29;20529;-78
2023/12/03 04:14:07;;;;;;;20.73;18.17;;;-2.90;99.90;;;;;;4877970;29;20481;-78
2023/12/03 04:16:34;;;;;;;20.50;18.40;;;-3.10;99.90;;;;;;4859687;29;20471;-79
2023/12/03 04:19:00;;;;;;;19.30;17.37;;;-3.10;99.90;;;;;;4868415;29;20451;-79
2023/12/03 04:21:27;;;;;;;21.20;19.00;;;-3.20;99.90;;;;;;4886667;29;20674;-78
2023/12/03 04:23:57;;;;;;;21.07;18.97;;;-3.30;99.90;;;;;;4881370;29;20442;-77
2023/12/03 04:26:23;;;;;;;21.37;19.17;;;-3.30;99.90;;;;;;4872692;29;20508;-79
2023/12/03 04:29:05;;;;;;;22.10;19.80;;;-3.30;99.90;;;;;;4856117;29;20461;-79
2023/12/03 04:31:49;;;;;;;21.67;19.57;;;-3.40;99.90;;;;;;4863350;29;20447;-77
2023/12/03 04:34:16;;;;;;;21.87;19.43;;;-3.40;99.90;;;;;;4877949;29;20455;-78
2023/12/03 04:36:43;;;;;;;20.67;18.47;;;-3.50;99.90;;;;;;4873071;29;20476;-77
2023/12/03 04:39:12;;;;;;;21.10;18.90;;;-3.50;99.90;;;;;;4860842;29;20882;-77
2023/12/03 04:41:38;;;;;;;20.57;18.40;;;-3.50;99.90;;;;;;4886858;29;20468;-78
2023/12/03 04:44:05;;;;;;;19.90;18.03;;;-3.60;99.90;;;;;;4871333;29;20455;-78
2023/12/03 04:46:32;;;;;;;20.40;18.23;;;-3.70;99.90;;;;;;4868013;29;21050;-80
2023/12/03 04:48:59;;;;;;;22.70;19.27;;;-3.70;99.90;;;;;;4857861;29;20454;-78
2023/12/03 04:51:26;;;;;;;20.17;18.17;;;-3.70;99.90;;;;;;4879474;29;20481;-79
2023/12/03 04:53:53;;;;;;;22.40;19.27;;;-3.80;99.90;;;;;;4870201;29;20485;-78
2023/12/03 04:56:21;;;;;;;19.47;17.43;;;-3.80;99.90;;;;;;4854091;29;21024;-80
2023/12/03 04:58:48;;;;;;;20.03;17.53;;;-3.90;99.90;;;;;;4891821;29;20444;-78
2023/12/03 05:01:17;;;;;;;19.87;17.80;;;-3.90;99.90;;;;;;4883932;29;20517;-78
2023/12/03 05:03:44;;;;;;;17.73;15.93;;;-3.90;99.90;;;;;;4880173;29;20445;-80
2023/12/03 05:06:11;;;;;;;18.70;16.70;;;-4.00;99.90;;;;;;4889860;29;20497;-79
2023/12/03 05:08:38;;;;;;;18.67;16.67;;;-4.10;99.90;;;;;;4880483;29;20457;-81
2023/12/03 05:11:06;;;;;;;18.83;16.70;;;-4.10;99.90;;;;;;4873556;29;20846;-77
2023/12/03 05:13:35;;;;;;;18.77;16.67;;;-4.20;99.90;;;;;;4889893;29;20537;-79
2023/12/03 05:16:01;;;;;;;22.37;17.43;;;-4.20;99.90;;;;;;4896078;29;20469;-79
2023/12/03 05:18:28;;;;;;;21.67;19.00;;;-4.30;99.90;;;;;;4873781;29;20465;-79
2023/12/03 05:20:56;;;;;;;20.70;18.53;;;-4.30;99.90;;;;;;4885508;29;20482;-80
2023/12/03 05:23:23;;;;;;;24.33;19.70;;;-4.30;99.90;;;;;;4905488;29;20460;-78
2023/12/03 05:25:50;;;;;;;24.07;20.93;;;-4.30;99.90;;;;;;4908376;29;20460;-79
2023/12/03 05:28:17;;;;;;;22.70;20.30;;;-4.30;99.90;;;;;;4881410;29;20463;-80
2023/12/03 05:30:45;;;;;;;22.60;18.83;;;-4.30;99.90;;;;;;4874385;29;20441;-78
2023/12/03 05:33:13;;;;;;;22.47;20.17;;;-4.30;99.90;;;;;;4897827;29;20516;-80
2023/12/03 05:35:39;;;;;;;25.63;20.00;;;-4.30;99.90;;;;;;4875446;29;20485;-79
2023/12/03 05:38:06;;;;;;;23.30;20.07;;;-4.40;99.90;;;;;;4873314;29;20465;-80
2023/12/03 05:40:33;;;;;;;20.33;18.37;;;-4.40;99.90;;;;;;4873777;29;20462;-78
2023/12/03 05:43:00;;;;;;;21.73;19.43;;;-4.40;99.90;;;;;;4876933;29;20453;-80
2023/12/03 05:45:27;;;;;;;20.37;18.20;;;-4.40;99.90;;;;;;4891208;29;20469;-80
2023/12/03 05:47:55;;;;;;;20.27;17.80;;;-4.30;99.90;;;;;;4877254;29;20599;-79
2023/12/03 05:50:22;;;;;;;20.63;18.53;;;-4.40;99.90;;;;;;4893831;29;20442;-78
2023/12/03 05:52:49;;;;;;;21.57;19.30;;;-4.30;99.90;;;;;;4873413;29;20488;-79
2023/12/03 05:55:16;;;;;;;21.53;18.77;;;-4.30;99.90;;;;;;4873147;29;20503;-79
2023/12/03 05:57:43;;;;;;;20.00;18.10;;;-4.30;99.90;;;;;;4889642;29;20472;-80
2023/12/03 06:00:11;;;;;;;21.27;19.03;;;-4.20;99.90;;;;;;4873038;29;20482;-79
2023/12/03 06:02:38;;;;;;;20.47;18.47;;;-4.20;99.90;;;;;;4892104;29;20473;-79
2023/12/03 06:05:07;;;;;;;20.30;18.17;;;-4.20;99.90;;;;;;4882713;29;20514;-79
2023/12/03 06:07:34;;;;;;;20.60;18.43;;;-4.20;99.90;;;;;;4897191;29;21015;-79
2023/12/03 06:10:01;;;;;;;20.37;18.27;;;-4.20;99.90;;;;;;4886767;29;20482;-76
2023/12/03 06:12:27;;;;;;;20.30;18.30;;;-4.20;99.90;;;;;;4894707;29;20448;-80
2023/12/03 06:14:55;;;;;;;21.00;19.00;;;-4.20;99.90;;;;;;4877740;29;20454;-80
2023/12/03 06:17:22;;;;;;;20.40;18.40;;;-4.10;99.90;;;;;;4877576;29;20446;-80
2023/12/03 06:19:49;;;;;;;21.27;18.97;;;-4.30;99.90;;;;;;4884699;29;20469;-79
2023/12/03 06:22:17;;;;;;;21.23;19.03;;;-4.30;99.90;;;;;;4895788;29;20448;-80
2023/12/03 06:24:44;;;;;;;20.03;17.97;;;-4.30;99.90;;;;;;4873714;29;20462;-79
2023/12/03 06:27:13;;;;;;;22.63;20.30;;;-4.30;99.90;;;;;;4881609;29;20485;-79
2023/12/03 06:29:40;;;;;;;20.37;18.47;;;-4.30;99.90;;;;;;4879732;29;20452;-79
2023/12/03 06:36:09;;;;;;;21.73;19.57;;;-4.40;99.90;;;;;;4887479;29;20464;-78
2023/12/03 06:39:11;;;;;;;20.60;18.70;;;-4.40;99.90;;;;;;4875406;29;20473;-79
2023/12/03 06:45:19;;;;;;;19.43;17.60;;;-4.30;99.90;;;;;;4936216;23;20544;-80
2023/12/03 06:47:49;;;;;;;20.23;18.33;;;-4.40;99.90;;;;;;4881672;29;20488;-80
2023/12/03 06:54:20;;;;;;;19.27;17.47;;;-4.40;99.90;;;;;;4822618;29;20457;-78
2023/12/03 06:56:58;;;;;;;19.87;17.93;;;-4.40;99.90;;;;;;4775087;29;20481;-82
2023/12/03 06:59:26;;;;;;;20.13;18.20;;;-4.40;99.90;;;;;;4875233;29;20450;-78
2023/12/03 07:01:52;;;;;;;20.13;18.23;;;-4.30;99.90;;;;;;4877960;29;20530;-78
2023/12/03 07:04:22;;;;;;;19.57;17.87;;;-4.20;99.90;;;;;;4882984;29;20434;-81
2023/12/03 07:06:51;;;;;;;21.00;18.80;;;-4.30;99.90;;;;;;5029172;23;20530;-79
2023/12/03 07:09:21;;;;;;;21.83;19.83;;;-4.30;99.90;;;;;;4844587;29;20561;-78
2023/12/03 07:11:48;;;;;;;21.33;19.37;;;-4.20;99.90;;;;;;4863867;29;20547;-78
2023/12/03 07:14:15;;;;;;;22.43;20.10;;;-4.30;99.90;;;;;;4867956;29;20461;-77
2023/12/03 07:16:42;;;;;;;21.40;19.20;;;-4.40;99.90;;;;;;4844287;29;20467;-77
2023/12/03 07:19:09;;;;;;;22.63;20.03;;;-4.30;99.90;;;;;;4854480;29;20953;-78
2023/12/03 07:21:35;;;;;;;22.67;20.30;;;-4.40;99.90;;;;;;4862614;29;20492;-78
2023/12/03 07:24:03;;;;;;;22.93;20.57;;;-4.40;99.90;;;;;;4845238;29;20459;-77
2023/12/03 07:26:31;;;;;;;21.97;19.67;;;-4.50;99.90;;;;;;4847121;29;20475;-77
2023/12/03 07:28:58;;;;;;;20.40;18.40;;;-4.40;99.90;;;;;;4847303;29;20446;-77
2023/12/03 07:31:25;;;;;;;20.80;18.80;;;-4.50;99.90;;;;;;4847323;29;20463;-77
2023/12/03 07:33:52;;;;;;;19.67;17.67;;;-4.50;99.90;;;;;;4870514;29;20442;-78
2023/12/03 07:36:19;;;;;;;20.83;18.97;;;-4.60;99.90;;;;;;4843642;29;20512;-78
2023/12/03 07:38:46;;;;;;;21.23;19.17;;;-4.50;99.90;;;;;;4845578;29;20806;-77
2023/12/03 07:41:13;;;;;;;22.17;19.90;;;-4.50;99.90;;;;;;4841245;29;20451;-78
2023/12/03 07:43:41;;;;;;;22.07;19.97;;;-4.50;99.90;;;;;;4847035;29;20888;-79
2023/12/03 07:46:10;;;;;;;21.33;19.03;;;-4.40;99.90;;;;;;4843432;29;20500;-78
2023/12/03 07:48:36;;;;;;;23.23;20.87;;;-4.30;99.90;;;;;;4862763;29;21005;-78
2023/12/03 07:51:09;;;;;;;19.93;18.07;;;-4.30;99.90;;;;;;4862032;29;20515;-78
2023/12/03 07:53:36;;;;;;;22.70;20.43;;;-4.30;99.90;;;;;;4867590;29;20438;-79
2023/12/03 07:56:04;;;;;;;22.87;20.63;;;-4.20;99.90;;;;;;4842929;29;20627;-77
2023/12/03 07:58:31;;;;;;;22.70;20.53;;;-4.20;99.90;;;;;;4850180;29;20526;-78
2023/12/03 08:01:00;;;;;;;23.33;21.23;;;-4.10;99.90;;;;;;4852011;29;20465;-78
2023/12/03 08:03:33;;;;;;;23.53;20.73;;;-4.00;99.90;;;;;;4852648;29;20469;-78
2023/12/03 08:06:07;;;;;;;24.17;20.40;;;-3.90;99.90;;;;;;4847216;29;20565;-78
2023/12/03 08:08:34;;;;;;;23.40;20.63;;;-3.80;99.90;;;;;;4863872;29;20535;-78
2023/12/03 08:11:01;;;;;;;24.47;22.07;;;-3.70;99.90;;;;;;4845601;29;20485;-78
2023/12/03 08:13:28;;;;;;;22.60;20.43;;;-3.50;99.90;;;;;;4842197;29;20469;-78
2023/12/03 08:16:27;;;;;;;24.20;21.67;;;-3.40;99.90;;;;;;4837850;29;20516;-82
2023/12/03 08:18:54;;;;;;;26.07;23.50;;;-3.20;99.90;;;;;;4864129;29;20449;-78
2023/12/03 08:24:36;;;;;;;24.47;22.13;;;-2.90;99.90;;;;;;4864470;29;20458;-78
2023/12/03 08:27:16;;;;;;;23.43;21.03;;;-2.30;99.90;;;;;;4861657;29;20952;-79
2023/12/03 08:29:44;;;;;;;22.30;20.20;;;-2.30;99.90;;;;;;4864112;29;20446;-80
2023/12/03 08:32:13;;;;;;;21.07;19.17;;;-2.40;99.90;;;;;;4868174;29;20451;-78
2023/12/03 08:34:40;;;;;;;21.70;19.67;;;-2.50;99.90;;;;;;4870385;29;20534;-77
2023/12/03 08:37:07;;;;;;;21.43;19.43;;;-2.20;99.90;;;;;;4845305;29;20448;-77
2023/12/03 08:39:33;;;;;;;24.73;22.23;;;-2.40;99.90;;;;;;4863734;29;20934;-77
2023/12/03 08:42:00;;;;;;;24.77;22.30;;;-2.30;99.90;;;;;;4871155;29;20443;-78
2023/12/03 08:44:28;;;;;;;24.33;21.83;;;-1.90;99.90;;;;;;4871080;29;20447;-78
2023/12/03 08:46:55;;;;;;;24.47;21.90;;;-2.10;99.90;;;;;;4871435;29;20458;-79
2023/12/03 08:49:23;;;;;;;22.43;20.33;;;-1.80;99.90;;;;;;4866924;29;20500;-78
2023/12/03 08:51:52;;;;;;;21.63;19.47;;;-2.30;99.90;;;;;;4864841;29;20451;-78
2023/12/03 08:54:19;;;;;;;21.90;19.90;;;-2.20;99.90;;;;;;4853531;29;20455;-76
2023/12/03 08:56:46;;;;;;;22.53;20.23;;;-1.90;99.90;;;;;;4864001;29;20459;-78
2023/12/03 08:59:12;;;;;;;22.70;20.40;;;-2.30;99.90;;;;;;4851299;29;21041;-77
2023/12/03 09:01:40;;;;;;;23.20;20.90;;;-2.30;99.90;;;;;;4851736;29;20477;-77
2023/12/03 09:04:06;;;;;;;24.13;21.67;;;-2.30;99.90;;;;;;4853495;29;20460;-77
2023/12/03 09:06:34;;;;;;;22.83;20.53;;;-2.50;99.90;;;;;;4847671;29;20507;-79
2023/12/03 09:09:01;;;;;;;23.23;20.90;;;-2.10;99.90;;;;;;4865494;29;20518;-79
2023/12/03 09:11:28;;;;;;;23.13;20.90;;;-2.20;99.90;;;;;;4847883;29;20550;-77
2023/12/03 09:13:55;;;;;;;22.33;20.23;;;-1.90;99.90;;;;;;4841724;29;20511;-77
2023/12/03 09:16:22;;;;;;;23.10;20.87;;;-1.90;99.90;;;;;;4866703;29;20990;-78
2023/12/03 09:18:48;;;;;;;22.57;20.43;;;-1.80;99.90;;;;;;4867995;29;20453;-78
2023/12/03 09:21:16;;;;;;;22.50;20.33;;;-1.70;99.90;;;;;;4871329;29;20471;-78
2023/12/03 09:23:44;;;;;;;21.90;19.67;;;-2.10;99.90;;;;;;4846393;29;20507;-77
2023/12/03 09:26:11;;;;;;;22.87;20.57;;;-2.20;99.90;;;;;;4869756;29;20492;-77
2023/12/03 09:28:38;;;;;;;24.17;21.73;;;-1.80;99.90;;;;;;4861494;29;20816;-80
2023/12/03 09:31:08;;;;;;;23.53;21.13;;;-2.10;99.90;;;;;;4849379;29;20460;-83
2023/12/03 09:33:35;;;;;;;22.27;20.07;;;-1.90;99.90;;;;;;4850021;29;20463;-80
2023/12/03 09:36:01;;;;;;;22.90;20.57;;;-1.80;99.90;;;;;;4850528;29;20504;-82
2023/12/03 09:38:28;;;;;;;22.47;20.23;;;-2.10;99.90;;;;;;4853434;29;20500;-82
2023/12/03 09:41:02;;;;;;;22.17;20.07;;;-2.00;99.90;;;;;;4856002;29;20446;-80
2023/12/03 09:43:38;;;;;;;22.23;19.93;;;-1.70;99.90;;;;;;4850685;29;20559;-79
2023/12/03 09:49:11;;;;;;;20.60;18.60;;;-1.70;99.90;;;;;;4844965;29;21070;-78
2023/12/03 09:51:41;;;;;;;22.63;20.20;;;-1.30;99.90;;;;;;4844404;29;20907;-78
2023/12/03 09:54:09;;;;;;;21.37;19.37;;;-1.40;99.90;;;;;;4844864;29;20460;-76
2023/12/03 09:56:40;;;;;;;22.50;20.40;;;-1.20;99.90;;;;;;4863603;29;20460;-78
2023/12/03 09:59:09;;;;;;;21.77;19.70;;;-1.50;99.90;;;;;;4851554;29;20450;-76
2023/12/03 10:01:38;;;;;;;21.43;19.47;;;-1.30;99.90;;;;;;4861124;29;20960;-79
2023/12/03 10:04:05;;;;;;;22.50;20.40;;;-1.30;99.90;;;;;;4846730;29;20458;-79
2023/12/03 10:06:34;;;;;;;20.27;18.37;;;-1.00;99.90;;;;;;4868335;29;20918;-78
2023/12/03 10:09:07;;;;;;;21.10;19.10;;;-1.40;99.90;;;;;;4837393;29;20542;-77
2023/12/03 10:11:41;;;;;;;20.73;18.83;;;-1.10;99.90;;;;;;4844604;29;20497;-78
2023/12/03 10:14:10;;;;;;;20.80;18.63;;;-0.90;99.90;;;;;;4867066;29;20452;-77
2023/12/03 10:16:38;;;;;;;20.03;18.00;;;-1.30;99.90;;;;;;4844520;29;20564;-77
2023/12/03 10:19:05;;;;;;;21.73;19.87;;;-1.30;99.90;;;;;;4855566;29;20477;-77
2023/12/03 10:21:32;;;;;;;22.70;20.53;;;-1.00;99.90;;;;;;4864430;29;20447;-76
2023/12/03 10:24:00;;;;;;;21.97;19.97;;;-1.10;99.90;;;;;;4866590;29;20806;-77
2023/12/03 10:26:27;;;;;;;22.40;20.10;;;-1.20;99.90;;;;;;4868789;29;20554;-78
2023/12/03 10:28:56;;;;;;;22.03;20.03;;;-0.80;99.90;;;;;;4845921;29;20493;-78
2023/12/03 10:31:23;;;;;;;23.30;21.10;;;-0.80;99.90;;;;;;4868912;29;20445;-78
2023/12/03 10:33:50;;;;;;;22.60;20.37;;;-1.00;99.90;;;;;;4844924;29;20467;-79
2023/12/03 10:36:18;;;;;;;23.53;21.13;;;-0.70;99.90;;;;;;4862674;29;20974;-77
2023/12/03 10:38:45;;;;;;;22.50;20.30;;;-0.70;99.90;;;;;;4852571;29;20445;-78
2023/12/03 10:41:14;;;;;;;21.80;19.60;;;-1.00;99.90;;;;;;4865054;29;20440;-78
2023/12/03 10:43:42;;;;;;;23.20;20.90;;;-0.80;99.90;;;;;;4866826;29;20452;-77
2023/12/03 10:46:11;;;;;;;22.77;20.53;;;-1.00;99.90;;;;;;4869605;29;20472;-79
2023/12/03 10:48:38;;;;;;;23.03;20.73;;;-0.80;99.90;;;;;;4845953;29;20536;-77
2023/12/03 10:51:07;;;;;;;24.10;21.60;;;-0.80;99.90;;;;;;4865751;29;20482;-77
2023/12/03 10:53:35;;;;;;;25.13;22.43;;;-0.80;99.90;;;;;;4867007;29;20446;-78
2023/12/03 10:56:03;;;;;;;24.43;21.87;;;-1.00;99.90;;;;;;4866431;29;20458;-77
2023/12/03 10:58:31;;;;;;;25.73;22.63;;;-1.20;99.90;;;;;;4864707;29;20534;-79
2023/12/03 11:01:06;;;;;;;24.70;22.23;;;-1.20;99.90;;;;;;4847264;29;20464;-80
2023/12/03 11:03:48;;;;;;;24.03;21.80;;;-1.30;99.90;;;;;;4867808;29;20943;-78
2023/12/03 11:06:16;;;;;;;27.33;24.43;;;-0.90;99.90;;;;;;4844314;29;20540;-78
2023/12/03 11:08:46;;;;;;;28.30;23.60;;;-1.20;99.90;;;;;;4844704;29;20484;-78
2023/12/03 11:11:14;;;;;;;26.50;23.80;;;-0.90;99.90;;;;;;4861419;29;20456;-77
2023/12/03 11:13:42;;;;;;;26.37;23.67;;;-1.10;99.90;;;;;;4844846;29;20899;-79
2023/12/03 11:16:12;;;;;;;25.13;22.77;;;-1.00;99.90;;;;;;4846421;29;20472;-78
2023/12/03 11:18:45;;;;;;;27.20;24.30;;;-1.00;99.90;;;;;;4861745;29;20447;-79
2023/12/03 11:21:16;;;;;;;28.30;25.27;;;-0.80;99.90;;;;;;4845993;29;20465;-77
2023/12/03 11:24:18;;;;;;;28.17;25.23;;;-0.70;99.90;;;;;;4843978;29;20455;-77
2023/12/03 11:26:45;;;;;;;26.33;23.63;;;-1.10;99.90;;;;;;4819958;29;20541;-77
2023/12/03 11:29:11;;;;;;;26.37;23.67;;;-1.00;99.90;;;;;;4859867;29;20488;-77
2023/12/03 11:31:38;;;;;;;25.67;23.00;;;-1.10;99.90;;;;;;4859962;29;20564;-77
2023/12/03 11:34:10;;;;;;;24.90;22.43;;;-1.00;99.90;;;;;;4863037;29;20903;-79
2023/12/03 11:36:42;;;;;;;23.93;21.67;;;-0.60;99.90;;;;;;4866711;29;20984;-78
2023/12/03 11:39:09;;;;;;;24.43;21.93;;;-0.90;99.90;;;;;;4866437;29;20934;-76
2023/12/03 11:41:39;;;;;;;21.30;19.33;;;-0.90;99.90;;;;;;4864715;29;20447;-79
2023/12/03 11:44:19;;;;;;;22.87;20.57;;;-0.60;99.90;;;;;;4863838;29;20514;-78
2023/12/03 11:46:48;;;;;;;22.10;20.13;;;-0.90;99.90;;;;;;4842056;29;20470;-79
2023/12/03 11:49:17;;;;;;;24.50;21.93;;;-0.90;99.90;;;;;;4843153;29;20555;-78
2023/12/03 11:51:46;;;;;;;22.90;20.70;;;-0.70;99.90;;;;;;4872832;29;20855;-77
2023/12/03 11:54:18;;;;;;;22.77;20.47;;;-0.40;99.90;;;;;;4858626;29;20512;-78
2023/12/03 11:56:46;;;;;;;20.93;18.90;;;-0.60;99.90;;;;;;4865097;29;20475;-78
2023/12/03 11:59:14;;;;;;;20.73;18.80;;;-0.80;99.90;;;;;;4862730;29;20511;-79
2023/12/03 12:01:40;;;;;;;21.80;19.70;;;-0.80;99.90;;;;;;4860126;29;20721;-77
2023/12/03 12:04:08;;;;;;;23.03;20.73;;;-0.70;99.90;;;;;;4860700;29;20524;-78
2023/12/03 12:06:37;;;;;;;23.13;20.87;;;-0.40;99.90;;;;;;4849976;29;20473;-77
2023/12/03 12:09:11;;;;;;;23.87;21.47;;;-0.50;99.90;;;;;;4841948;29;20512;-77
2023/12/03 12:11:38;;;;;;;22.43;20.37;;;-0.70;99.90;;;;;;4859643;29;20542;-77
2023/12/03 12:14:05;;;;;;;23.37;21.07;;;-0.30;99.90;;;;;;4845354;29;20464;-77
2023/12/03 12:16:32;;;;;;;23.80;21.40;;;-0.60;99.90;;;;;;4842136;29;20476;-77
2023/12/03 12:18:59;;;;;;;24.23;21.87;;;-0.50;99.90;;;;;;4865507;29;20457;-79
2023/12/03 12:21:27;;;;;;;22.47;20.47;;;-0.70;99.90;;;;;;4852457;29;20470;-81
2023/12/03 12:23:55;;;;;;;22.57;20.47;;;-0.60;99.90;;;;;;4860980;29;20508;-77
2023/12/03 12:26:22;;;;;;;23.33;21.13;;;-0.60;99.90;;;;;;4860088;29;20894;-77
2023/12/03 12:28:48;;;;;;;21.03;19.13;;;-0.60;99.90;;;;;;4860945;29;20543;-76
2023/12/03 12:31:19;;;;;;;22.90;20.70;;;-0.60;99.90;;;;;;4844384;29;21312;-78
2023/12/03 12:33:46;;;;;;;22.43;20.30;;;-0.60;99.90;;;;;;4844482;29;20464;-77
2023/12/03 12:36:16;;;;;;;23.23;21.17;;;-0.50;99.90;;;;;;4858331;29;20783;-77
2023/12/03 12:38:47;;;;;;;21.60;19.60;;;-0.50;99.90;;;;;;4862864;29;20441;-78
2023/12/03 12:41:15;;;;;;;22.33;20.13;;;-0.50;99.90;;;;;;4845790;29;20470;-79
2023/12/03 12:43:55;;;;;;;22.90;20.77;;;-0.50;99.90;;;;;;4862674;29;20496;-78
2023/12/03 12:46:26;;;;;;;22.27;20.07;;;-0.50;99.90;;;;;;4847156;29;20486;-77
2023/12/03 12:48:53;;;;;;;22.80;20.70;;;-0.40;99.90;;;;;;4845636;29;20477;-77
2023/12/03 12:51:21;;;;;;;23.80;21.30;;;-0.50;99.90;;;;;;4847248;29;20452;-78